Miriam Moran — WQZ6572 — position and weather

sailwx.info

Track history (hours):
 
Tides and Currents Weather Stations Pressure Air Temp Water Temp Dewpoint Dewpoint Depression Visibility Wind Speed Wind Dir Waves Ship Positions

Miriam Moran

Owner: MORAN TOWING CORPORATION, New Canaan, CT. More information available from US FCC via Universal Licensing System and Coast Guard Vessel Documentation Center.

Last reported at 2017-Dec-18 03:50 UTC. Time now 2017-Dec-18 05:20 UTC.
Position N 40°38' W 074°08'.

Length 31 m; draft 4.6 m.

Type: Tug. MMSI: 366939710.

Date/timePositionNaut miles runAvg speedWind from/ knotsBaromVisibWave heightAir tempDewpointWater temp
2017-Dec-18 03:50N 40°38' W 074°08'0 0.0
2017-Dec-18 03:29N 40°38' W 074°08'0 0.0
2017-Dec-18 01:29N 40°38' W 074°08'0 0.0
2017-Dec-18 00:59N 40°38' W 074°08'0 0.0
2017-Dec-18 00:29N 40°38' W 074°08'0 0.0
2017-Dec-17 23:44N 40°38' W 074°08'0 0.0
2017-Dec-17 23:29N 40°38' W 074°08'0 0.0
2017-Dec-17 22:59N 40°38' W 074°08'0 0.0
2017-Dec-17 22:15N 40°38' W 074°08'1 5.3
2017-Dec-17 22:00N 40°40' W 074°09'3 5.9
2017-Dec-17 21:28N 40°43' W 074°07'3 5.6
2017-Dec-17 21:00N 40°40' W 074°08'2 3.4
2017-Dec-17 20:30N 40°39' W 074°09'1 0.7
2017-Dec-17 19:16N 40°38' W 074°08'0 0.0
2017-Dec-17 19:00N 40°38' W 074°08'3 6.5
2017-Dec-17 18:30N 40°42' W 074°07'1 1.9
2017-Dec-17 17:58N 40°43' W 074°07'0 0.1
2017-Dec-17 17:30N 40°43' W 074°07'4 7.8
2017-Dec-17 17:00N 40°39' W 074°09'1 2.0
2017-Dec-17 16:30N 40°38' W 074°08'0 0.0
2017-Dec-17 16:00N 40°38' W 074°08'0 0.0
2017-Dec-17 15:30N 40°38' W 074°08'0 0.0
2017-Dec-17 14:51N 40°38' W 074°08'0 0.0
2017-Dec-17 14:30N 40°38' W 074°08'0 0.0
2017-Dec-17 13:54N 40°38' W 074°08'0 0.0
2017-Dec-17 13:30N 40°38' W 074°08'0 0.6
2017-Dec-17 13:00N 40°39' W 074°07'3 5.6
2017-Dec-17 12:30N 40°40' W 074°04'0 0.5
2017-Dec-17 12:00N 40°40' W 074°04'2 4.7
2017-Dec-17 11:30N 40°39' W 074°07'2 4.8
2017-Dec-17 11:00N 40°41' W 074°08'1 1.6
2017-Dec-17 10:30N 40°42' W 074°08'2 3.0
2017-Dec-17 10:00N 40°40' W 074°08'2 3.6
2017-Dec-17 09:29N 40°38' W 074°08'0 0.0
2017-Dec-17 08:59N 40°38' W 074°08'0 0.0
2017-Dec-17 08:30N 40°38' W 074°08'0 0.0
2017-Dec-17 08:00N 40°38' W 074°08'0 0.0
2017-Dec-17 07:30N 40°38' W 074°08'3 6.3
2017-Dec-17 07:00N 40°38' W 074°04'1 1.9
2017-Dec-17 06:30N 40°37' W 074°03'0 0.7
2017-Dec-17 06:00N 40°37' W 074°03'1 2.2
2017-Dec-17 05:29N 40°36' W 074°02'4 8.3
2017-Dec-17 05:00N 40°40' W 074°04'0 0.0
2017-Dec-17 04:30N 40°40' W 074°04'0 0.0
2017-Dec-17 04:00N 40°40' W 074°04'0 0.3
2017-Dec-17 03:31N 40°40' W 074°04'3 6.8
2017-Dec-17 03:00N 40°40' W 074°09'2 4.3
2017-Dec-17 02:29N 40°42' W 074°08'1 1.4
2017-Dec-17 02:00N 40°41' W 074°08'2 3.2
2017-Dec-17 01:30N 40°40' W 074°09'1 2.6
2017-Dec-17 00:59N 40°39' W 074°08'0 0.1
2017-Dec-17 00:30N 40°39' W 074°08'0 0.3
2017-Dec-17 00:00N 40°38' W 074°08'0 0.0
2017-Dec-16 23:30N 40°38' W 074°08'0 0.0
2017-Dec-16 23:00N 40°38' W 074°08'0 0.0
2017-Dec-16 22:29N 40°38' W 074°08'0 0.0
2017-Dec-16 22:00N 40°38' W 074°08'0 0.0
2017-Dec-16 21:30N 40°38' W 074°08'0 0.0
2017-Dec-16 21:00N 40°38' W 074°08'0 0.0
2017-Dec-16 20:29N 40°38' W 074°08'0 0.0
2017-Dec-16 20:00N 40°38' W 074°08'4 8.2
2017-Dec-16 19:30N 40°40' W 074°03'612.1
2017-Dec-16 19:00N 40°46' W 074°01'612.5
2017-Dec-16 18:30N 40°52' W 073°57'6 0.8
2017-Dec-16 10:47N 40°57' W 073°54'2 8.4
2017-Dec-16 10:30N 40°55' W 073°55'5 9.1
2017-Dec-16 10:00N 40°51' W 073°57'4 8.6
2017-Dec-16 09:30N 40°47' W 073°60'4 7.7
2017-Dec-16 09:00N 40°43' W 074°01'4 7.6
2017-Dec-16 08:30N 40°40' W 074°03'4 7.5
2017-Dec-16 08:01N 40°39' W 074°08'0 0.2
2017-Dec-16 07:30N 40°38' W 074°08'0 0.0
2017-Dec-16 07:00N 40°38' W 074°08'0 0.0
2017-Dec-16 06:30N 40°38' W 074°08'0 0.0
2017-Dec-16 06:00N 40°38' W 074°08'0 0.0
2017-Dec-16 05:30N 40°38' W 074°08'0 0.0
2017-Dec-16 05:00N 40°38' W 074°08'0 0.0
2017-Dec-16 04:30N 40°38' W 074°08'0 0.0
2017-Dec-16 04:00N 40°38' W 074°08'0 0.0
2017-Dec-16 03:29N 40°38' W 074°08'0 0.0
2017-Dec-16 02:55N 40°38' W 074°08'0 0.0
2017-Dec-16 02:30N 40°38' W 074°08'0 0.0
2017-Dec-16 01:58N 40°38' W 074°08'0 0.0
2017-Dec-16 01:30N 40°38' W 074°08'0 0.0
2017-Dec-16 01:00N 40°38' W 074°08'0 0.0
2017-Dec-15 23:42N 40°38' W 074°08'0 0.0
2017-Dec-15 23:26N 40°38' W 074°08'0 0.0
2017-Dec-15 22:00N 40°38' W 074°08'0 0.0
2017-Dec-15 21:30N 40°38' W 074°08'0 0.0
2017-Dec-15 20:59N 40°38' W 074°08'0 0.0
2017-Dec-15 20:28N 40°38' W 074°08'0 0.0
2017-Dec-15 20:00N 40°38' W 074°08'0 0.0
2017-Dec-15 19:29N 40°38' W 074°08'0 0.0
2017-Dec-15 18:49N 40°38' W 074°08'0 0.0
2017-Dec-15 18:30N 40°38' W 074°08'0 0.0
2017-Dec-15 18:00N 40°38' W 074°08'1 1.9
2017-Dec-15 17:29N 40°39' W 074°07'0 0.0
2017-Dec-15 17:00N 40°39' W 074°07'0 0.0
2017-Dec-15 16:30N 40°39' W 074°07'0 0.0
2017-Dec-15 16:00N 40°39' W 074°07'2 3.4
2017-Dec-15 15:30N 40°39' W 074°09'3 6.4
2017-Dec-15 15:00N 40°39' W 074°05'2 4.9
2017-Dec-15 14:30N 40°38' W 074°08'0 0.0
2017-Dec-15 14:00N 40°38' W 074°08'1 2.2
2017-Dec-15 13:20N 40°40' W 074°09'1 2.8
2017-Dec-15 13:00N 40°41' W 074°09'0 0.6
2017-Dec-15 12:30N 40°41' W 074°09'0 0.1
2017-Dec-15 12:00N 40°41' W 074°09'0 0.0
2017-Dec-15 11:30N 40°41' W 074°09'0 0.0
2017-Dec-15 11:00N 40°41' W 074°09'0 0.2
2017-Dec-15 10:30N 40°41' W 074°09'2 4.0
2017-Dec-15 10:00N 40°39' W 074°09'1 2.7
2017-Dec-15 09:29N 40°39' W 074°07'1 2.8
2017-Dec-15 09:00N 40°39' W 074°09'2 3.1
2017-Dec-15 08:30N 40°41' W 074°09'1 1.2
2017-Dec-15 08:01N 40°41' W 074°09'0 0.3
2017-Dec-15 07:30N 40°41' W 074°09'3 5.3
2017-Dec-15 07:00N 40°38' W 074°08'1 2.2
2017-Dec-15 06:28N 40°39' W 074°09'1 3.0
2017-Dec-15 06:00N 40°39' W 074°11'0 0.6
2017-Dec-15 05:29N 40°39' W 074°11'3 5.7
2017-Dec-15 05:00N 40°39' W 074°08'0 0.1
2017-Dec-15 04:30N 40°38' W 074°08'0 0.0
2017-Dec-15 04:00N 40°38' W 074°08'3 1.8
2017-Dec-15 02:30N 40°41' W 074°08'3 1.7
2017-Dec-15 00:59N 40°38' W 074°08'0 0.0
2017-Dec-15 00:28N 40°38' W 074°08'0 0.0
2017-Dec-14 18:30N 40°38' W 074°08'0 0.0
2017-Dec-14 18:00N 40°38' W 074°08'0 0.0
2017-Dec-14 17:29N 40°38' W 074°08'0 0.0
2017-Dec-14 17:00N 40°38' W 074°08'0 0.0
2017-Dec-14 16:28N 40°38' W 074°08'0 0.2
2017-Dec-14 16:00N 40°39' W 074°08'0 0.0
2017-Dec-14 14:58N 40°39' W 074°08'0 0.0
2017-Dec-14 14:29N 40°39' W 074°08'0 0.1
2017-Dec-14 13:59N 40°38' W 074°08'0 0.0
2017-Dec-14 13:29N 40°38' W 074°08'0 0.0
2017-Dec-14 12:59N 40°38' W 074°08'0 0.0
2017-Dec-14 12:30N 40°38' W 074°08'0 0.0
2017-Dec-14 12:00N 40°38' W 074°08'2 4.9
2017-Dec-14 11:30N 40°41' W 074°09'1 1.2
2017-Dec-14 10:59N 40°41' W 074°09'1 2.9
2017-Dec-14 10:29N 40°40' W 074°08'2 3.0
2017-Dec-14 09:57N 40°39' W 074°07'1 1.1
2017-Dec-14 09:30N 40°38' W 074°08'0 0.0
2017-Dec-14 08:54N 40°38' W 074°08'0 0.0
2017-Dec-14 08:30N 40°38' W 074°08'0 0.0
2017-Dec-14 07:57N 40°38' W 074°08'0 0.0
2017-Dec-14 07:18N 40°38' W 074°08'0 0.0
2017-Dec-14 06:47N 40°38' W 074°08'0 0.0
2017-Dec-14 06:26N 40°38' W 074°08'0 0.0
2017-Dec-14 05:59N 40°38' W 074°08'0 0.0
2017-Dec-14 05:14N 40°38' W 074°08'0 0.0
2017-Dec-14 04:59N 40°38' W 074°08'0 0.0
2017-Dec-14 04:08N 40°38' W 074°08'0 0.0
2017-Dec-14 03:53N 40°38' W 074°08'0 0.0
2017-Dec-14 03:29N 40°38' W 074°08'0 0.0
2017-Dec-14 02:59N 40°38' W 074°08'0 0.0
2017-Dec-14 02:23N 40°38' W 074°08'0 0.0
2017-Dec-14 01:44N 40°38' W 074°08'0 0.0
2017-Dec-14 01:17N 40°38' W 074°08'0 0.0
2017-Dec-14 00:59N 40°38' W 074°08'0 0.0
2017-Dec-14 00:26N 40°38' W 074°08'0 0.0
2017-Dec-13 23:50N 40°38' W 074°08'1 3.1
2017-Dec-13 23:30N 40°39' W 074°09'3 5.5
2017-Dec-13 23:00N 40°42' W 074°09'0 0.7
2017-Dec-13 22:30N 40°42' W 074°08'0 0.7
2017-Dec-13 22:00N 40°41' W 074°08'3 5.8
2017-Dec-13 21:30N 40°39' W 074°08'0 0.2
2017-Dec-13 20:59N 40°38' W 074°08'0 0.0
2017-Dec-13 20:29N 40°38' W 074°08'4 7.9
2017-Dec-13 20:00N 40°40' W 074°03'510.9
2017-Dec-13 19:31N 40°45' W 074°01'1 2.7
2017-Dec-13 19:00N 40°46' W 074°00'0 0.1
2017-Dec-13 18:30N 40°46' W 074°00'0 0.5
2017-Dec-13 18:00N 40°46' W 074°00'2 4.6
2017-Dec-13 17:31N 40°44' W 074°01'4 8.4
2017-Dec-13 17:00N 40°40' W 074°03'4 3.1
2017-Dec-13 15:46N 40°38' W 074°08'0 0.0
2017-Dec-13 15:29N 40°38' W 074°08'0 0.0
2017-Dec-13 14:41N 40°38' W 074°08'0 0.2
2017-Dec-13 14:30N 40°39' W 074°08'3 5.8
2017-Dec-13 13:59N 40°41' W 074°09'0 0.3
2017-Dec-13 13:30N 40°41' W 074°09'0 0.1
2017-Dec-13 12:56N 40°41' W 074°09'3 6.3
2017-Dec-13 12:30N 40°39' W 074°09'1 1.5
2017-Dec-13 12:00N 40°38' W 074°08'1 2.0
2017-Dec-13 11:28N 40°39' W 074°09'1 2.4
2017-Dec-13 11:00N 40°40' W 074°08'0 0.2
2017-Dec-13 10:30N 40°40' W 074°08'0 0.3
2017-Dec-13 10:00N 40°40' W 074°09'2 0.8
2017-Dec-13 08:05N 40°38' W 074°08'0 0.1
2017-Dec-13 08:00N 40°38' W 074°08'0 0.0
2017-Dec-13 07:30N 40°38' W 074°08'0 0.0
2017-Dec-13 07:00N 40°38' W 074°08'0 0.0
2017-Dec-13 06:30N 40°38' W 074°08'0 0.0
2017-Dec-13 06:00N 40°38' W 074°08'0 0.0
2017-Dec-13 05:30N 40°38' W 074°08'0 0.0
2017-Dec-13 05:00N 40°38' W 074°08'0 0.0
2017-Dec-13 04:30N 40°38' W 074°08'0 0.0
2017-Dec-13 04:00N 40°38' W 074°08'2 3.5
2017-Dec-13 03:31N 40°40' W 074°08'1 2.8
2017-Dec-13 03:00N 40°42' W 074°08'2 4.4
2017-Dec-13 02:30N 40°39' W 074°09'1 2.2
2017-Dec-13 02:00N 40°38' W 074°08'0 0.0
2017-Dec-13 01:30N 40°38' W 074°08'0 0.0
2017-Dec-13 01:00N 40°38' W 074°08'0 0.0
2017-Dec-13 00:30N 40°38' W 074°08'0 0.0
2017-Dec-13 00:00N 40°39' W 074°08'0 0.0
2017-Dec-12 23:30N 40°39' W 074°08'0 0.0
2017-Dec-12 23:00N 40°39' W 074°08'0 0.0
2017-Dec-12 22:29N 40°39' W 074°08'0 0.0
2017-Dec-12 22:00N 40°39' W 074°08'2 4.2
2017-Dec-12 21:30N 40°39' W 074°05'0 0.0
2017-Dec-12 21:00N 40°39' W 074°05'0 0.3
2017-Dec-12 20:31N 40°39' W 074°05'2 4.1
2017-Dec-12 20:00N 40°38' W 074°03'4 7.6
2017-Dec-12 19:30N 40°38' W 074°08'0 0.0
2017-Dec-12 18:58N 40°38' W 074°08'0 0.0
2017-Dec-12 17:51N 40°38' W 074°08'0 0.0
2017-Dec-12 17:29N 40°38' W 074°08'0 0.0
2017-Dec-12 16:48N 40°38' W 074°08'0 0.0
2017-Dec-12 16:28N 40°38' W 074°08'0 0.0
2017-Dec-12 16:00N 40°38' W 074°08'1 1.9
2017-Dec-12 15:30N 40°39' W 074°09'2 4.7
2017-Dec-12 15:00N 40°41' W 074°09'1 2.5
2017-Dec-12 14:30N 40°40' W 074°08'2 3.7
2017-Dec-12 13:59N 40°39' W 074°06'3 5.8
2017-Dec-12 13:30N 40°38' W 074°03'2 4.1
2017-Dec-12 13:00N 40°39' W 074°05'2 4.0
2017-Dec-12 12:30N 40°38' W 074°08'0 0.0
2017-Dec-12 12:00N 40°38' W 074°08'0 0.0
2017-Dec-12 11:31N 40°38' W 074°08'0 0.0
2017-Dec-12 11:00N 40°38' W 074°08'0 0.0
2017-Dec-12 10:30N 40°38' W 074°08'0 0.7
2017-Dec-12 10:00N 40°39' W 074°07'1 2.4
2017-Dec-12 09:30N 40°39' W 074°09'1 1.6
2017-Dec-12 09:01N 40°40' W 074°09'0 0.3
2017-Dec-12 08:30N 40°40' W 074°09'1 1.3
2017-Dec-12 08:00N 40°39' W 074°09'1 1.2
2017-Dec-12 07:30N 40°40' W 074°09'1 2.5
2017-Dec-12 07:00N 40°39' W 074°08'1 0.7
2017-Dec-12 06:19N 40°38' W 074°08'0 0.0
2017-Dec-12 05:58N 40°38' W 074°08'0 0.0
2017-Dec-12 05:22N 40°38' W 074°08'0 0.0
2017-Dec-12 04:58N 40°38' W 074°08'0 0.0
2017-Dec-12 04:25N 40°38' W 074°08'0 0.0
2017-Dec-12 03:55N 40°38' W 074°08'0 0.0
2017-Dec-12 03:28N 40°38' W 074°08'0 0.0
2017-Dec-12 02:49N 40°38' W 074°08'0 0.0
2017-Dec-12 02:22N 40°38' W 074°08'0 0.0
2017-Dec-12 02:01N 40°38' W 074°08'0 0.0
2017-Dec-12 01:24N 40°38' W 074°08'0 0.0
2017-Dec-12 00:54N 40°38' W 074°08'0 0.0
2017-Dec-12 00:21N 40°38' W 074°08'0 0.0
2017-Dec-11 23:51N 40°38' W 074°08'0 0.0
2017-Dec-11 23:30N 40°38' W 074°08'0 0.0
2017-Dec-11 22:57N 40°38' W 074°08'0 0.0
2017-Dec-11 22:30N 40°38' W 074°08'1 2.8
2017-Dec-11 21:59N 40°40' W 074°09'1 1.6
2017-Dec-11 21:28N 40°39' W 074°09'2 4.7
2017-Dec-11 21:00N 40°39' W 074°06'2 4.8
2017-Dec-11 20:30N 40°38' W 074°03'3 6.5
2017-Dec-11 20:00N 40°39' W 074°07'0 0.6
2017-Dec-11 19:29N 40°38' W 074°08'0 0.0
2017-Dec-11 18:59N 40°38' W 074°08'0 0.0
2017-Dec-11 18:26N 40°38' W 074°08'0 0.0
2017-Dec-11 17:29N 40°38' W 074°08'0 0.0
2017-Dec-11 16:59N 40°38' W 074°08'0 0.0
2017-Dec-11 16:23N 40°38' W 074°08'0 0.0
2017-Dec-11 15:59N 40°38' W 074°08'0 0.0
2017-Dec-11 15:29N 40°38' W 074°08'0 0.0
2017-Dec-11 14:44N 40°38' W 074°08'0 0.0
2017-Dec-11 14:29N 40°38' W 074°08'0 0.0
2017-Dec-11 13:50N 40°38' W 074°08'0 0.0
2017-Dec-11 13:29N 40°38' W 074°08'0 0.0
2017-Dec-11 12:56N 40°38' W 074°08'0 0.0
2017-Dec-11 12:29N 40°38' W 074°08'0 0.0
2017-Dec-11 11:56N 40°38' W 074°08'0 0.0
2017-Dec-11 11:20N 40°38' W 074°08'0 0.0
2017-Dec-11 11:00N 40°38' W 074°08'2 3.9
2017-Dec-11 10:30N 40°40' W 074°08'1 1.8
2017-Dec-11 10:00N 40°41' W 074°09'0 0.3
2017-Dec-11 09:30N 40°41' W 074°09'0 0.0
2017-Dec-11 09:00N 40°41' W 074°09'0 0.0
2017-Dec-11 08:30N 40°41' W 074°09'0 0.0
2017-Dec-11 07:57N 40°41' W 074°09'2 3.8
2017-Dec-11 07:30N 40°39' W 074°09'1 2.2
2017-Dec-11 06:59N 40°38' W 074°08'0 0.0
2017-Dec-11 06:26N 40°38' W 074°08'0 0.0
2017-Dec-11 05:59N 40°38' W 074°08'0 0.0
2017-Dec-11 05:23N 40°38' W 074°08'0 0.0
2017-Dec-11 04:50N 40°38' W 074°08'0 0.0
2017-Dec-11 04:29N 40°38' W 074°08'0 0.0
2017-Dec-11 03:59N 40°38' W 074°08'0 0.0
2017-Dec-11 03:29N 40°38' W 074°08'0 0.0
2017-Dec-11 02:56N 40°38' W 074°08'0 0.0
2017-Dec-11 02:26N 40°38' W 074°08'0 0.0
2017-Dec-11 01:59N 40°38' W 074°08'0 0.0
2017-Dec-11 01:29N 40°38' W 074°08'0 0.0
2017-Dec-11 00:59N 40°38' W 074°08'0 0.0
2017-Dec-10 23:47N 40°38' W 074°08'0 0.0
2017-Dec-10 23:29N 40°38' W 074°08'1 2.7
2017-Dec-10 23:00N 40°40' W 074°09'1 2.8
2017-Dec-10 22:30N 40°41' W 074°09'2 4.6
2017-Dec-10 22:00N 40°39' W 074°09'1 1.6
2017-Dec-10 21:28N 40°38' W 074°08'0 0.0
2017-Dec-10 20:59N 40°38' W 074°08'0 0.0
2017-Dec-10 20:30N 40°38' W 074°08'0 0.0
2017-Dec-10 20:00N 40°38' W 074°08'0 0.0
2017-Dec-10 19:30N 40°38' W 074°08'1 2.2
2017-Dec-10 19:00N 40°39' W 074°09'1 2.9
2017-Dec-10 18:30N 40°41' W 074°09'0 0.0
2017-Dec-10 18:00N 40°41' W 074°09'2 4.1
2017-Dec-10 17:30N 40°39' W 074°09'1 1.8
2017-Dec-10 17:00N 40°38' W 074°08'0 0.0
2017-Dec-10 16:30N 40°38' W 074°08'0 0.0
2017-Dec-10 16:00N 40°38' W 074°08'0 0.0
2017-Dec-10 15:30N 40°38' W 074°08'0 0.0
2017-Dec-10 15:00N 40°38' W 074°08'0 0.0
2017-Dec-10 14:30N 40°38' W 074°08'0 0.0
2017-Dec-10 14:00N 40°38' W 074°08'0 0.0
2017-Dec-10 13:29N 40°38' W 074°08'0 0.0
2017-Dec-10 13:00N 40°38' W 074°08'0 0.0
2017-Dec-10 12:30N 40°38' W 074°08'0 0.0
2017-Dec-10 12:00N 40°38' W 074°08'0 0.0
2017-Dec-10 11:30N 40°38' W 074°08'0 0.0
2017-Dec-10 11:00N 40°38' W 074°08'0 0.0
2017-Dec-10 10:30N 40°38' W 074°08'0 0.0
2017-Dec-10 10:00N 40°38' W 074°08'0 0.0
2017-Dec-10 09:30N 40°38' W 074°08'1 1.7
2017-Dec-10 09:00N 40°39' W 074°09'2 4.7
2017-Dec-10 08:30N 40°41' W 074°09'0 0.4
2017-Dec-10 08:00N 40°41' W 074°09'0 0.0
2017-Dec-10 07:30N 40°41' W 074°09'0 0.0
2017-Dec-10 07:00N 40°41' W 074°09'2 3.6
2017-Dec-10 06:30N 40°39' W 074°09'4 8.2
2017-Dec-10 06:00N 40°36' W 074°12'0 0.0
2017-Dec-10 02:20N 40°36' W 074°12'3 8.8
2017-Dec-10 01:57N 40°39' W 074°11'2 3.4
2017-Dec-10 01:18N 40°38' W 074°08'0 0.0
2017-Dec-10 00:53N 40°38' W 074°08'0 0.0
2017-Dec-09 20:17N 40°38' W 074°08'0 0.0
2017-Dec-09 18:44N 40°38' W 074°08'0 0.0
2017-Dec-09 18:29N 40°38' W 074°08'0 0.0
2017-Dec-09 17:50N 40°38' W 074°08'0 0.0
2017-Dec-09 17:20N 40°38' W 074°08'0 0.0
2017-Dec-09 16:50N 40°38' W 074°08'1 3.0
2017-Dec-09 16:30N 40°39' W 074°09'2 3.8
2017-Dec-09 16:00N 40°41' W 074°09'1 1.8
2017-Dec-09 15:30N 40°40' W 074°08'2 3.4
2017-Dec-09 15:00N 40°39' W 074°08'3 5.2
2017-Dec-09 14:30N 40°41' W 074°08'0 0.1
2017-Dec-09 14:00N 40°41' W 074°08'2 3.5
2017-Dec-09 13:30N 40°39' W 074°09'1 2.4
2017-Dec-09 13:00N 40°38' W 074°08'0 0.2
2017-Dec-09 12:17N 40°38' W 074°08'0 0.0
2017-Dec-09 11:47N 40°38' W 074°08'0 0.0
2017-Dec-09 11:17N 40°38' W 074°08'0 0.0
2017-Dec-09 10:59N 40°38' W 074°08'0 0.0
2017-Dec-09 10:29N 40°38' W 074°08'0 0.0
2017-Dec-09 09:53N 40°38' W 074°08'0 0.0
2017-Dec-09 09:26N 40°38' W 074°08'0 0.0
2017-Dec-09 08:59N 40°38' W 074°08'0 0.0
2017-Dec-09 08:29N 40°38' W 074°08'0 0.0
2017-Dec-09 07:59N 40°38' W 074°08'0 0.0
2017-Dec-09 07:29N 40°38' W 074°08'0 0.3
2017-Dec-09 07:00N 40°39' W 074°08'1 2.1
2017-Dec-09 06:27N 40°40' W 074°09'0 0.5
2017-Dec-09 05:59N 40°40' W 074°09'2 2.3
2017-Dec-09 05:20N 40°38' W 074°08'0 0.0
2017-Dec-09 04:56N 40°38' W 074°08'0 0.0
2017-Dec-09 04:23N 40°38' W 074°08'0 0.0
2017-Dec-09 03:53N 40°38' W 074°08'0 0.0
2017-Dec-09 03:26N 40°38' W 074°08'0 0.0
2017-Dec-09 02:59N 40°38' W 074°08'0 0.0
2017-Dec-09 02:05N 40°38' W 074°08'0 0.0
2017-Dec-09 01:35N 40°38' W 074°08'0 0.0
2017-Dec-09 01:26N 40°38' W 074°08'0 0.0
2017-Dec-09 00:59N 40°38' W 074°08'0 0.0
2017-Dec-09 00:26N 40°38' W 074°08'0 0.0
2017-Dec-09 00:00N 40°38' W 074°08'3 5.5
2017-Dec-08 23:30N 40°41' W 074°08'1 1.6
2017-Dec-08 23:00N 40°42' W 074°09'1 1.6
2017-Dec-08 22:30N 40°41' W 074°08'3 4.5
2017-Dec-08 21:53N 40°38' W 074°08'0 0.0
2017-Dec-08 21:29N 40°38' W 074°08'0 0.0
2017-Dec-08 20:59N 40°38' W 074°08'0 0.0
2017-Dec-08 20:26N 40°38' W 074°08'0 0.0
2017-Dec-08 19:59N 40°38' W 074°08'0 0.0
2017-Dec-08 19:26N 40°38' W 074°08'0 0.0
2017-Dec-08 18:59N 40°38' W 074°08'0 0.0
2017-Dec-08 17:32N 40°38' W 074°08'0 0.0
2017-Dec-08 17:26N 40°38' W 074°08'0 0.0
2017-Dec-08 16:53N 40°38' W 074°08'0 0.0
2017-Dec-08 16:17N 40°38' W 074°08'0 0.0
2017-Dec-08 15:53N 40°38' W 074°08'0 0.0
2017-Dec-08 15:17N 40°38' W 074°08'0 0.0
2017-Dec-08 13:50N 40°38' W 074°08'0 0.0
2017-Dec-08 13:26N 40°38' W 074°08'1 2.2
2017-Dec-08 12:56N 40°39' W 074°09'2 3.9
2017-Dec-08 12:30N 40°40' W 074°08'1 2.0
2017-Dec-08 12:00N 40°41' W 074°09'0 0.2
2017-Dec-08 11:30N 40°41' W 074°09'1 2.5
2017-Dec-08 11:00N 40°40' W 074°09'1 1.6
2017-Dec-08 10:30N 40°39' W 074°09'1 2.0
2017-Dec-08 09:59N 40°38' W 074°08'0 0.0
2017-Dec-08 09:30N 40°38' W 074°08'0 0.0
2017-Dec-08 09:00N 40°38' W 074°08'0 0.0
2017-Dec-08 08:30N 40°38' W 074°08'0 0.0
2017-Dec-08 07:59N 40°38' W 074°08'0 0.0
2017-Dec-08 07:30N 40°38' W 074°08'0 0.0
2017-Dec-08 07:00N 40°38' W 074°08'4 7.4
2017-Dec-08 06:30N 40°40' W 074°03'1 1.7
2017-Dec-08 05:59N 40°40' W 074°04'0 0.5
2017-Dec-08 05:30N 40°40' W 074°04'2 3.6
2017-Dec-08 05:00N 40°39' W 074°06'2 4.3
2017-Dec-08 04:30N 40°40' W 074°08'1 1.6
2017-Dec-08 04:00N 40°41' W 074°09'  
Track history (hours):
 
Tides and Currents Weather Stations Pressure Air Temp Water Temp Dewpoint Dewpoint Depression Visibility Wind Speed Wind Dir Waves Ship Positions

Miriam Moran

Owner: MORAN TOWING CORPORATION, New Canaan, CT. More information available from US FCC via Universal Licensing System and Coast Guard Vessel Documentation Center.

Last reported at 2017-Dec-18 03:50 UTC. Time now 2017-Dec-18 05:20 UTC.
Position N 40°38' W 074°08'.

Length 31 m; draft 4.6 m.

Type: Tug. MMSI: 366939710.

Date/timePositionNaut miles runAvg speedWind from/ knotsBaromVisibWave heightAir tempDewpointWater temp
2017-Dec-18 03:50N 40°38' W 074°08'0 0.0
2017-Dec-18 03:29N 40°38' W 074°08'0 0.0
2017-Dec-18 01:29N 40°38' W 074°08'0 0.0
2017-Dec-18 00:59N 40°38' W 074°08'0 0.0
2017-Dec-18 00:29N 40°38' W 074°08'0 0.0
2017-Dec-17 23:44N 40°38' W 074°08'0 0.0
2017-Dec-17 23:29N 40°38' W 074°08'0 0.0
2017-Dec-17 22:59N 40°38' W 074°08'0 0.0
2017-Dec-17 22:15N 40°38' W 074°08'1 5.3
2017-Dec-17 22:00N 40°40' W 074°09'3 5.9
2017-Dec-17 21:28N 40°43' W 074°07'3 5.6
2017-Dec-17 21:00N 40°40' W 074°08'2 3.4
2017-Dec-17 20:30N 40°39' W 074°09'1 0.7
2017-Dec-17 19:16N 40°38' W 074°08'0 0.0
2017-Dec-17 19:00N 40°38' W 074°08'3 6.5
2017-Dec-17 18:30N 40°42' W 074°07'1 1.9
2017-Dec-17 17:58N 40°43' W 074°07'0 0.1
2017-Dec-17 17:30N 40°43' W 074°07'4 7.8
2017-Dec-17 17:00N 40°39' W 074°09'1 2.0
2017-Dec-17 16:30N 40°38' W 074°08'0 0.0
2017-Dec-17 16:00N 40°38' W 074°08'0 0.0
2017-Dec-17 15:30N 40°38' W 074°08'0 0.0
2017-Dec-17 14:51N 40°38' W 074°08'0 0.0
2017-Dec-17 14:30N 40°38' W 074°08'0 0.0
2017-Dec-17 13:54N 40°38' W 074°08'0 0.0
2017-Dec-17 13:30N 40°38' W 074°08'0 0.6
2017-Dec-17 13:00N 40°39' W 074°07'3 5.6
2017-Dec-17 12:30N 40°40' W 074°04'0 0.5
2017-Dec-17 12:00N 40°40' W 074°04'2 4.7
2017-Dec-17 11:30N 40°39' W 074°07'2 4.8
2017-Dec-17 11:00N 40°41' W 074°08'1 1.6
2017-Dec-17 10:30N 40°42' W 074°08'2 3.0
2017-Dec-17 10:00N 40°40' W 074°08'2 3.6
2017-Dec-17 09:29N 40°38' W 074°08'0 0.0
2017-Dec-17 08:59N 40°38' W 074°08'0 0.0
2017-Dec-17 08:30N 40°38' W 074°08'0 0.0
2017-Dec-17 08:00N 40°38' W 074°08'0 0.0
2017-Dec-17 07:30N 40°38' W 074°08'3 6.3
2017-Dec-17 07:00N 40°38' W 074°04'1 1.9
2017-Dec-17 06:30N 40°37' W 074°03'0 0.7
2017-Dec-17 06:00N 40°37' W 074°03'1 2.2
2017-Dec-17 05:29N 40°36' W 074°02'4 8.3
2017-Dec-17 05:00N 40°40' W 074°04'0 0.0
2017-Dec-17 04:30N 40°40' W 074°04'0 0.0
2017-Dec-17 04:00N 40°40' W 074°04'0 0.3
2017-Dec-17 03:31N 40°40' W 074°04'3 6.8
2017-Dec-17 03:00N 40°40' W 074°09'2 4.3
2017-Dec-17 02:29N 40°42' W 074°08'1 1.4
2017-Dec-17 02:00N 40°41' W 074°08'2 3.2
2017-Dec-17 01:30N 40°40' W 074°09'1 2.6
2017-Dec-17 00:59N 40°39' W 074°08'0 0.1
2017-Dec-17 00:30N 40°39' W 074°08'0 0.3
2017-Dec-17 00:00N 40°38' W 074°08'0 0.0
2017-Dec-16 23:30N 40°38' W 074°08'0 0.0
2017-Dec-16 23:00N 40°38' W 074°08'0 0.0
2017-Dec-16 22:29N 40°38' W 074°08'0 0.0
2017-Dec-16 22:00N 40°38' W 074°08'0 0.0
2017-Dec-16 21:30N 40°38' W 074°08'0 0.0
2017-Dec-16 21:00N 40°38' W 074°08'0 0.0
2017-Dec-16 20:29N 40°38' W 074°08'0 0.0
2017-Dec-16 20:00N 40°38' W 074°08'4 8.2
2017-Dec-16 19:30N 40°40' W 074°03'612.1
2017-Dec-16 19:00N 40°46' W 074°01'612.5
2017-Dec-16 18:30N 40°52' W 073°57'6 0.8
2017-Dec-16 10:47N 40°57' W 073°54'2 8.4
2017-Dec-16 10:30N 40°55' W 073°55'5 9.1
2017-Dec-16 10:00N 40°51' W 073°57'4 8.6
2017-Dec-16 09:30N 40°47' W 073°60'4 7.7
2017-Dec-16 09:00N 40°43' W 074°01'4 7.6
2017-Dec-16 08:30N 40°40' W 074°03'4 7.5
2017-Dec-16 08:01N 40°39' W 074°08'0 0.2
2017-Dec-16 07:30N 40°38' W 074°08'0 0.0
2017-Dec-16 07:00N 40°38' W 074°08'0 0.0
2017-Dec-16 06:30N 40°38' W 074°08'0 0.0
2017-Dec-16 06:00N 40°38' W 074°08'0 0.0
2017-Dec-16 05:30N 40°38' W 074°08'0 0.0
2017-Dec-16 05:00N 40°38' W 074°08'0 0.0
2017-Dec-16 04:30N 40°38' W 074°08'0 0.0
2017-Dec-16 04:00N 40°38' W 074°08'0 0.0
2017-Dec-16 03:29N 40°38' W 074°08'0 0.0
2017-Dec-16 02:55N 40°38' W 074°08'0 0.0
2017-Dec-16 02:30N 40°38' W 074°08'0 0.0
2017-Dec-16 01:58N 40°38' W 074°08'0 0.0
2017-Dec-16 01:30N 40°38' W 074°08'0 0.0
2017-Dec-16 01:00N 40°38' W 074°08'0 0.0
2017-Dec-15 23:42N 40°38' W 074°08'0 0.0
2017-Dec-15 23:26N 40°38' W 074°08'0 0.0
2017-Dec-15 22:00N 40°38' W 074°08'0 0.0
2017-Dec-15 21:30N 40°38' W 074°08'0 0.0
2017-Dec-15 20:59N 40°38' W 074°08'0 0.0
2017-Dec-15 20:28N 40°38' W 074°08'0 0.0
2017-Dec-15 20:00N 40°38' W 074°08'0 0.0
2017-Dec-15 19:29N 40°38' W 074°08'0 0.0
2017-Dec-15 18:49N 40°38' W 074°08'0 0.0
2017-Dec-15 18:30N 40°38' W 074°08'0 0.0
2017-Dec-15 18:00N 40°38' W 074°08'1 1.9
2017-Dec-15 17:29N 40°39' W 074°07'0 0.0
2017-Dec-15 17:00N 40°39' W 074°07'0 0.0
2017-Dec-15 16:30N 40°39' W 074°07'0 0.0
2017-Dec-15 16:00N 40°39' W 074°07'2 3.4
2017-Dec-15 15:30N 40°39' W 074°09'3 6.4
2017-Dec-15 15:00N 40°39' W 074°05'2 4.9
2017-Dec-15 14:30N 40°38' W 074°08'0 0.0
2017-Dec-15 14:00N 40°38' W 074°08'1 2.2
2017-Dec-15 13:20N 40°40' W 074°09'1 2.8
2017-Dec-15 13:00N 40°41' W 074°09'0 0.6
2017-Dec-15 12:30N 40°41' W 074°09'0 0.1
2017-Dec-15 12:00N 40°41' W 074°09'0 0.0
2017-Dec-15 11:30N 40°41' W 074°09'0 0.0
2017-Dec-15 11:00N 40°41' W 074°09'0 0.2
2017-Dec-15 10:30N 40°41' W 074°09'2 4.0
2017-Dec-15 10:00N 40°39' W 074°09'1 2.7
2017-Dec-15 09:29N 40°39' W 074°07'1 2.8
2017-Dec-15 09:00N 40°39' W 074°09'2 3.1
2017-Dec-15 08:30N 40°41' W 074°09'1 1.2
2017-Dec-15 08:01N 40°41' W 074°09'0 0.3
2017-Dec-15 07:30N 40°41' W 074°09'3 5.3
2017-Dec-15 07:00N 40°38' W 074°08'1 2.2
2017-Dec-15 06:28N 40°39' W 074°09'1 3.0
2017-Dec-15 06:00N 40°39' W 074°11'0 0.6
2017-Dec-15 05:29N 40°39' W 074°11'3 5.7
2017-Dec-15 05:00N 40°39' W 074°08'0 0.1
2017-Dec-15 04:30N 40°38' W 074°08'0 0.0
2017-Dec-15 04:00N 40°38' W 074°08'3 1.8
2017-Dec-15 02:30N 40°41' W 074°08'3 1.7
2017-Dec-15 00:59N 40°38' W 074°08'0 0.0
2017-Dec-15 00:28N 40°38' W 074°08'0 0.0
2017-Dec-14 18:30N 40°38' W 074°08'0 0.0
2017-Dec-14 18:00N 40°38' W 074°08'0 0.0
2017-Dec-14 17:29N 40°38' W 074°08'0 0.0
2017-Dec-14 17:00N 40°38' W 074°08'0 0.0
2017-Dec-14 16:28N 40°38' W 074°08'0 0.2
2017-Dec-14 16:00N 40°39' W 074°08'0 0.0
2017-Dec-14 14:58N 40°39' W 074°08'0 0.0
2017-Dec-14 14:29N 40°39' W 074°08'0 0.1
2017-Dec-14 13:59N 40°38' W 074°08'0 0.0
2017-Dec-14 13:29N 40°38' W 074°08'0 0.0
2017-Dec-14 12:59N 40°38' W 074°08'0 0.0
2017-Dec-14 12:30N 40°38' W 074°08'0 0.0
2017-Dec-14 12:00N 40°38' W 074°08'2 4.9
2017-Dec-14 11:30N 40°41' W 074°09'1 1.2
2017-Dec-14 10:59N 40°41' W 074°09'1 2.9
2017-Dec-14 10:29N 40°40' W 074°08'2 3.0
2017-Dec-14 09:57N 40°39' W 074°07'1 1.1
2017-Dec-14 09:30N 40°38' W 074°08'0 0.0
2017-Dec-14 08:54N 40°38' W 074°08'0 0.0
2017-Dec-14 08:30N 40°38' W 074°08'0 0.0
2017-Dec-14 07:57N 40°38' W 074°08'0 0.0
2017-Dec-14 07:18N 40°38' W 074°08'0 0.0
2017-Dec-14 06:47N 40°38' W 074°08'0 0.0
2017-Dec-14 06:26N 40°38' W 074°08'0 0.0
2017-Dec-14 05:59N 40°38' W 074°08'0 0.0
2017-Dec-14 05:14N 40°38' W 074°08'0 0.0
2017-Dec-14 04:59N 40°38' W 074°08'0 0.0
2017-Dec-14 04:08N 40°38' W 074°08'0 0.0
2017-Dec-14 03:53N 40°38' W 074°08'0 0.0
2017-Dec-14 03:29N 40°38' W 074°08'0 0.0
2017-Dec-14 02:59N 40°38' W 074°08'0 0.0
2017-Dec-14 02:23N 40°38' W 074°08'0 0.0
2017-Dec-14 01:44N 40°38' W 074°08'0 0.0
2017-Dec-14 01:17N 40°38' W 074°08'0 0.0
2017-Dec-14 00:59N 40°38' W 074°08'0 0.0
2017-Dec-14 00:26N 40°38' W 074°08'0 0.0
2017-Dec-13 23:50N 40°38' W 074°08'1 3.1
2017-Dec-13 23:30N 40°39' W 074°09'3 5.5
2017-Dec-13 23:00N 40°42' W 074°09'0 0.7
2017-Dec-13 22:30N 40°42' W 074°08'0 0.7
2017-Dec-13 22:00N 40°41' W 074°08'3 5.8
2017-Dec-13 21:30N 40°39' W 074°08'0 0.2
2017-Dec-13 20:59N 40°38' W 074°08'0 0.0
2017-Dec-13 20:29N 40°38' W 074°08'4 7.9
2017-Dec-13 20:00N 40°40' W 074°03'510.9
2017-Dec-13 19:31N 40°45' W 074°01'1 2.7
2017-Dec-13 19:00N 40°46' W 074°00'0 0.1
2017-Dec-13 18:30N 40°46' W 074°00'0 0.5
2017-Dec-13 18:00N 40°46' W 074°00'2 4.6
2017-Dec-13 17:31N 40°44' W 074°01'4 8.4
2017-Dec-13 17:00N 40°40' W 074°03'4 3.1
2017-Dec-13 15:46N 40°38' W 074°08'0 0.0
2017-Dec-13 15:29N 40°38' W 074°08'0 0.0
2017-Dec-13 14:41N 40°38' W 074°08'0 0.2
2017-Dec-13 14:30N 40°39' W 074°08'3 5.8
2017-Dec-13 13:59N 40°41' W 074°09'0 0.3
2017-Dec-13 13:30N 40°41' W 074°09'0 0.1
2017-Dec-13 12:56N 40°41' W 074°09'3 6.3
2017-Dec-13 12:30N 40°39' W 074°09'1 1.5
2017-Dec-13 12:00N 40°38' W 074°08'1 2.0
2017-Dec-13 11:28N 40°39' W 074°09'1 2.4
2017-Dec-13 11:00N 40°40' W 074°08'0 0.2
2017-Dec-13 10:30N 40°40' W 074°08'0 0.3
2017-Dec-13 10:00N 40°40' W 074°09'2 0.8
2017-Dec-13 08:05N 40°38' W 074°08'0 0.1
2017-Dec-13 08:00N 40°38' W 074°08'0 0.0
2017-Dec-13 07:30N 40°38' W 074°08'0 0.0
2017-Dec-13 07:00N 40°38' W 074°08'0 0.0
2017-Dec-13 06:30N 40°38' W 074°08'0 0.0
2017-Dec-13 06:00N 40°38' W 074°08'0 0.0
2017-Dec-13 05:30N 40°38' W 074°08'0 0.0
2017-Dec-13 05:00N 40°38' W 074°08'0 0.0
2017-Dec-13 04:30N 40°38' W 074°08'0 0.0
2017-Dec-13 04:00N 40°38' W 074°08'2 3.5
2017-Dec-13 03:31N 40°40' W 074°08'1 2.8
2017-Dec-13 03:00N 40°42' W 074°08'2 4.4
2017-Dec-13 02:30N 40°39' W 074°09'1 2.2
2017-Dec-13 02:00N 40°38' W 074°08'0 0.0
2017-Dec-13 01:30N 40°38' W 074°08'0 0.0
2017-Dec-13 01:00N 40°38' W 074°08'0 0.0
2017-Dec-13 00:30N 40°38' W 074°08'0 0.0
2017-Dec-13 00:00N 40°39' W 074°08'0 0.0
2017-Dec-12 23:30N 40°39' W 074°08'0 0.0
2017-Dec-12 23:00N 40°39' W 074°08'0 0.0
2017-Dec-12 22:29N 40°39' W 074°08'0 0.0
2017-Dec-12 22:00N 40°39' W 074°08'2 4.2
2017-Dec-12 21:30N 40°39' W 074°05'0 0.0
2017-Dec-12 21:00N 40°39' W 074°05'0 0.3
2017-Dec-12 20:31N 40°39' W 074°05'2 4.1
2017-Dec-12 20:00N 40°38' W 074°03'4 7.6
2017-Dec-12 19:30N 40°38' W 074°08'0 0.0
2017-Dec-12 18:58N 40°38' W 074°08'0 0.0
2017-Dec-12 17:51N 40°38' W 074°08'0 0.0
2017-Dec-12 17:29N 40°38' W 074°08'0 0.0
2017-Dec-12 16:48N 40°38' W 074°08'0 0.0
2017-Dec-12 16:28N 40°38' W 074°08'0 0.0
2017-Dec-12 16:00N 40°38' W 074°08'1 1.9
2017-Dec-12 15:30N 40°39' W 074°09'2 4.7
2017-Dec-12 15:00N 40°41' W 074°09'1 2.5
2017-Dec-12 14:30N 40°40' W 074°08'2 3.7
2017-Dec-12 13:59N 40°39' W 074°06'3 5.8
2017-Dec-12 13:30N 40°38' W 074°03'2 4.1
2017-Dec-12 13:00N 40°39' W 074°05'2 4.0
2017-Dec-12 12:30N 40°38' W 074°08'0 0.0
2017-Dec-12 12:00N 40°38' W 074°08'0 0.0
2017-Dec-12 11:31N 40°38' W 074°08'0 0.0
2017-Dec-12 11:00N 40°38' W 074°08'0 0.0
2017-Dec-12 10:30N 40°38' W 074°08'0 0.7
2017-Dec-12 10:00N 40°39' W 074°07'1 2.4
2017-Dec-12 09:30N 40°39' W 074°09'1 1.6
2017-Dec-12 09:01N 40°40' W 074°09'0 0.3
2017-Dec-12 08:30N 40°40' W 074°09'1 1.3
2017-Dec-12 08:00N 40°39' W 074°09'1 1.2
2017-Dec-12 07:30N 40°40' W 074°09'1 2.5
2017-Dec-12 07:00N 40°39' W 074°08'1 0.7
2017-Dec-12 06:19N 40°38' W 074°08'0 0.0
2017-Dec-12 05:58N 40°38' W 074°08'0 0.0
2017-Dec-12 05:22N 40°38' W 074°08'0 0.0
2017-Dec-12 04:58N 40°38' W 074°08'0 0.0
2017-Dec-12 04:25N 40°38' W 074°08'0 0.0
2017-Dec-12 03:55N 40°38' W 074°08'0 0.0
2017-Dec-12 03:28N 40°38' W 074°08'0 0.0
2017-Dec-12 02:49N 40°38' W 074°08'0 0.0
2017-Dec-12 02:22N 40°38' W 074°08'0 0.0
2017-Dec-12 02:01N 40°38' W 074°08'0 0.0
2017-Dec-12 01:24N 40°38' W 074°08'0 0.0
2017-Dec-12 00:54N 40°38' W 074°08'0 0.0
2017-Dec-12 00:21N 40°38' W 074°08'0 0.0
2017-Dec-11 23:51N 40°38' W 074°08'0 0.0
2017-Dec-11 23:30N 40°38' W 074°08'0 0.0
2017-Dec-11 22:57N 40°38' W 074°08'0 0.0
2017-Dec-11 22:30N 40°38' W 074°08'1 2.8
2017-Dec-11 21:59N 40°40' W 074°09'1 1.6
2017-Dec-11 21:28N 40°39' W 074°09'2 4.7
2017-Dec-11 21:00N 40°39' W 074°06'2 4.8
2017-Dec-11 20:30N 40°38' W 074°03'3 6.5
2017-Dec-11 20:00N 40°39' W 074°07'0 0.6
2017-Dec-11 19:29N 40°38' W 074°08'0 0.0
2017-Dec-11 18:59N 40°38' W 074°08'0 0.0
2017-Dec-11 18:26N 40°38' W 074°08'0 0.0
2017-Dec-11 17:29N 40°38' W 074°08'0 0.0
2017-Dec-11 16:59N 40°38' W 074°08'0 0.0
2017-Dec-11 16:23N 40°38' W 074°08'0 0.0
2017-Dec-11 15:59N 40°38' W 074°08'0 0.0
2017-Dec-11 15:29N 40°38' W 074°08'0 0.0
2017-Dec-11 14:44N 40°38' W 074°08'0 0.0
2017-Dec-11 14:29N 40°38' W 074°08'0 0.0
2017-Dec-11 13:50N 40°38' W 074°08'0 0.0
2017-Dec-11 13:29N 40°38' W 074°08'0 0.0
2017-Dec-11 12:56N 40°38' W 074°08'0 0.0
2017-Dec-11 12:29N 40°38' W 074°08'0 0.0
2017-Dec-11 11:56N 40°38' W 074°08'0 0.0
2017-Dec-11 11:20N 40°38' W 074°08'0 0.0
2017-Dec-11 11:00N 40°38' W 074°08'2 3.9
2017-Dec-11 10:30N 40°40' W 074°08'1 1.8
2017-Dec-11 10:00N 40°41' W 074°09'0 0.3
2017-Dec-11 09:30N 40°41' W 074°09'0 0.0
2017-Dec-11 09:00N 40°41' W 074°09'0 0.0
2017-Dec-11 08:30N 40°41' W 074°09'0 0.0
2017-Dec-11 07:57N 40°41' W 074°09'2 3.8
2017-Dec-11 07:30N 40°39' W 074°09'1 2.2
2017-Dec-11 06:59N 40°38' W 074°08'0 0.0
2017-Dec-11 06:26N 40°38' W 074°08'0 0.0
2017-Dec-11 05:59N 40°38' W 074°08'0 0.0
2017-Dec-11 05:23N 40°38' W 074°08'0 0.0
2017-Dec-11 04:50N 40°38' W 074°08'0 0.0
2017-Dec-11 04:29N 40°38' W 074°08'0 0.0
2017-Dec-11 03:59N 40°38' W 074°08'0 0.0
2017-Dec-11 03:29N 40°38' W 074°08'0 0.0
2017-Dec-11 02:56N 40°38' W 074°08'0 0.0
2017-Dec-11 02:26N 40°38' W 074°08'0 0.0
2017-Dec-11 01:59N 40°38' W 074°08'0 0.0
2017-Dec-11 01:29N 40°38' W 074°08'0 0.0
2017-Dec-11 00:59N 40°38' W 074°08'0 0.0
2017-Dec-10 23:47N 40°38' W 074°08'0 0.0
2017-Dec-10 23:29N 40°38' W 074°08'1 2.7
2017-Dec-10 23:00N 40°40' W 074°09'1 2.8
2017-Dec-10 22:30N 40°41' W 074°09'2 4.6
2017-Dec-10 22:00N 40°39' W 074°09'1 1.6
2017-Dec-10 21:28N 40°38' W 074°08'0 0.0
2017-Dec-10 20:59N 40°38' W 074°08'0 0.0
2017-Dec-10 20:30N 40°38' W 074°08'0 0.0
2017-Dec-10 20:00N 40°38' W 074°08'0 0.0
2017-Dec-10 19:30N 40°38' W 074°08'1 2.2
2017-Dec-10 19:00N 40°39' W 074°09'1 2.9
2017-Dec-10 18:30N 40°41' W 074°09'0 0.0
2017-Dec-10 18:00N 40°41' W 074°09'2 4.1
2017-Dec-10 17:30N 40°39' W 074°09'1 1.8
2017-Dec-10 17:00N 40°38' W 074°08'0 0.0
2017-Dec-10 16:30N 40°38' W 074°08'0 0.0
2017-Dec-10 16:00N 40°38' W 074°08'0 0.0
2017-Dec-10 15:30N 40°38' W 074°08'0 0.0
2017-Dec-10 15:00N 40°38' W 074°08'0 0.0
2017-Dec-10 14:30N 40°38' W 074°08'0 0.0
2017-Dec-10 14:00N 40°38' W 074°08'0 0.0
2017-Dec-10 13:29N 40°38' W 074°08'0 0.0
2017-Dec-10 13:00N 40°38' W 074°08'0 0.0
2017-Dec-10 12:30N 40°38' W 074°08'0 0.0
2017-Dec-10 12:00N 40°38' W 074°08'0 0.0
2017-Dec-10 11:30N 40°38' W 074°08'0 0.0
2017-Dec-10 11:00N 40°38' W 074°08'0 0.0
2017-Dec-10 10:30N 40°38' W 074°08'0 0.0
2017-Dec-10 10:00N 40°38' W 074°08'0 0.0
2017-Dec-10 09:30N 40°38' W 074°08'1 1.7
2017-Dec-10 09:00N 40°39' W 074°09'2 4.7
2017-Dec-10 08:30N 40°41' W 074°09'0 0.4
2017-Dec-10 08:00N 40°41' W 074°09'0 0.0
2017-Dec-10 07:30N 40°41' W 074°09'0 0.0
2017-Dec-10 07:00N 40°41' W 074°09'2 3.6
2017-Dec-10 06:30N 40°39' W 074°09'4 8.2
2017-Dec-10 06:00N 40°36' W 074°12'0 0.0
2017-Dec-10 02:20N 40°36' W 074°12'3 8.8
2017-Dec-10 01:57N 40°39' W 074°11'2 3.4
2017-Dec-10 01:18N 40°38' W 074°08'0 0.0
2017-Dec-10 00:53N 40°38' W 074°08'0 0.0
2017-Dec-09 20:17N 40°38' W 074°08'0 0.0
2017-Dec-09 18:44N 40°38' W 074°08'0 0.0
2017-Dec-09 18:29N 40°38' W 074°08'0 0.0
2017-Dec-09 17:50N 40°38' W 074°08'0 0.0
2017-Dec-09 17:20N 40°38' W 074°08'0 0.0
2017-Dec-09 16:50N 40°38' W 074°08'1 3.0
2017-Dec-09 16:30N 40°39' W 074°09'2 3.8
2017-Dec-09 16:00N 40°41' W 074°09'1 1.8
2017-Dec-09 15:30N 40°40' W 074°08'2 3.4
2017-Dec-09 15:00N 40°39' W 074°08'3 5.2
2017-Dec-09 14:30N 40°41' W 074°08'0 0.1
2017-Dec-09 14:00N 40°41' W 074°08'2 3.5
2017-Dec-09 13:30N 40°39' W 074°09'1 2.4
2017-Dec-09 13:00N 40°38' W 074°08'0 0.2
2017-Dec-09 12:17N 40°38' W 074°08'0 0.0
2017-Dec-09 11:47N 40°38' W 074°08'0 0.0
2017-Dec-09 11:17N 40°38' W 074°08'0 0.0
2017-Dec-09 10:59N 40°38' W 074°08'0 0.0
2017-Dec-09 10:29N 40°38' W 074°08'0 0.0
2017-Dec-09 09:53N 40°38' W 074°08'0 0.0
2017-Dec-09 09:26N 40°38' W 074°08'0 0.0
2017-Dec-09 08:59N 40°38' W 074°08'0 0.0
2017-Dec-09 08:29N 40°38' W 074°08'0 0.0
2017-Dec-09 07:59N 40°38' W 074°08'0 0.0
2017-Dec-09 07:29N 40°38' W 074°08'0 0.3
2017-Dec-09 07:00N 40°39' W 074°08'1 2.1
2017-Dec-09 06:27N 40°40' W 074°09'0 0.5
2017-Dec-09 05:59N 40°40' W 074°09'2 2.3
2017-Dec-09 05:20N 40°38' W 074°08'0 0.0
2017-Dec-09 04:56N 40°38' W 074°08'0 0.0
2017-Dec-09 04:23N 40°38' W 074°08'0 0.0
2017-Dec-09 03:53N 40°38' W 074°08'0 0.0
2017-Dec-09 03:26N 40°38' W 074°08'0 0.0
2017-Dec-09 02:59N 40°38' W 074°08'0 0.0
2017-Dec-09 02:05N 40°38' W 074°08'0 0.0
2017-Dec-09 01:35N 40°38' W 074°08'0 0.0
2017-Dec-09 01:26N 40°38' W 074°08'0 0.0
2017-Dec-09 00:59N 40°38' W 074°08'0 0.0
2017-Dec-09 00:26N 40°38' W 074°08'0 0.0
2017-Dec-09 00:00N 40°38' W 074°08'3 5.5
2017-Dec-08 23:30N 40°41' W 074°08'1 1.6
2017-Dec-08 23:00N 40°42' W 074°09'1 1.6
2017-Dec-08 22:30N 40°41' W 074°08'3 4.5
2017-Dec-08 21:53N 40°38' W 074°08'0 0.0
2017-Dec-08 21:29N 40°38' W 074°08'0 0.0
2017-Dec-08 20:59N 40°38' W 074°08'0 0.0
2017-Dec-08 20:26N 40°38' W 074°08'0 0.0
2017-Dec-08 19:59N 40°38' W 074°08'0 0.0
2017-Dec-08 19:26N 40°38' W 074°08'0 0.0
2017-Dec-08 18:59N 40°38' W 074°08'0 0.0
2017-Dec-08 17:32N 40°38' W 074°08'0 0.0
2017-Dec-08 17:26N 40°38' W 074°08'0 0.0
2017-Dec-08 16:53N 40°38' W 074°08'0 0.0
2017-Dec-08 16:17N 40°38' W 074°08'0 0.0
2017-Dec-08 15:53N 40°38' W 074°08'0 0.0
2017-Dec-08 15:17N 40°38' W 074°08'0 0.0
2017-Dec-08 13:50N 40°38' W 074°08'0 0.0
2017-Dec-08 13:26N 40°38' W 074°08'1 2.2
2017-Dec-08 12:56N 40°39' W 074°09'2 3.9
2017-Dec-08 12:30N 40°40' W 074°08'1 2.0
2017-Dec-08 12:00N 40°41' W 074°09'0 0.2
2017-Dec-08 11:30N 40°41' W 074°09'1 2.5
2017-Dec-08 11:00N 40°40' W 074°09'1 1.6
2017-Dec-08 10:30N 40°39' W 074°09'1 2.0
2017-Dec-08 09:59N 40°38' W 074°08'0 0.0
2017-Dec-08 09:30N 40°38' W 074°08'0 0.0
2017-Dec-08 09:00N 40°38' W 074°08'0 0.0
2017-Dec-08 08:30N 40°38' W 074°08'0 0.0
2017-Dec-08 07:59N 40°38' W 074°08'0 0.0
2017-Dec-08 07:30N 40°38' W 074°08'0 0.0
2017-Dec-08 07:00N 40°38' W 074°08'4 7.4
2017-Dec-08 06:30N 40°40' W 074°03'1 1.7
2017-Dec-08 05:59N 40°40' W 074°04'0 0.5
2017-Dec-08 05:30N 40°40' W 074°04'2 3.6
2017-Dec-08 05:00N 40°39' W 074°06'2 4.3
2017-Dec-08 04:30N 40°40' W 074°08'1 1.6
2017-Dec-08 04:00N 40°41' W 074°09'  

Dump ship's entire track history